Date,TemperatureHighF,TemperatureAvgF,TemperatureLowF,DewpointHighF,DewpointAvgF,DewpointLowF,HumidityHigh,HumidityAvg,HumidityLow,PressureMaxIn,PressureMinIn,WindSpeedMaxMPH,WindSpeedAvgMPH,GustSpeedMaxMPH,PrecipitationSumIn
2013-1-11,38.4,37.0,36.3,5.8,3.3,0.7,26,24,21,30.00,29.95,23,9,26,0.00
2013-1-14,30.5,24.9,15.4,24.6,17.2,8.3,84,72,52,30.45,30.26,11,1,14,0.00
2013-1-15,28.4,15.6,8.0,8.3,4.1,1.3,78,62,34,30.66,30.44,9,1,10,0.00
2013-1-18,28.2,27.1,26.6,17.9,17.7,17.5,68,67,65,30.64,30.64,1,0,8,0.00
2013-2-15,55.9,46.5,36.1,23.5,12.4,4.6,56,27,13,30.52,30.33,18,1,18,0.00
2013-2-16,60.6,42.6,26.5,15.0,9.9,2.4,52,29,12,30.59,30.26,8,0,8,0.00
2013-2-17,61.9,44.7,25.0,10.7,6.8,1.9,48,24,9,30.28,29.81,18,2,20,0.00
2013-2-18,55.9,44.6,32.9,19.4,1.3,-15.1,47,19,5,30.18,29.90,17,2,18,0.00
2013-2-19,38.2,30.3,26.0,0.3,-3.5,-6.5,28,23,19,30.20,30.16,5,0,5,0.00
2013-2-20,51.5,41.6,34.9,31.7,28.1,15.8,76,60,26,29.66,29.54,16,2,16,0.00
2013-2-21,48.9,37.7,29.2,28.5,24.6,20.8,91,61,36,30.04,29.62,17,2,21,0.13
2013-2-22,45.2,36.9,30.7,25.7,22.1,14.4,73,57,30,30.22,30.03,16,2,16,0.00
2013-2-23,49.4,37.4,23.2,20.5,15.6,10.9,70,43,25,30.27,29.88,11,1,11,0.00
2013-2-24,44.6,36.6,29.6,26.5,17.4,6.5,87,48,25,30.05,29.75,16,2,19,0.00
2013-2-25,52.2,38.6,26.9,26.2,13.7,4.0,85,41,15,30.27,30.05,14,1,14,0.02
2013-2-26,51.6,37.4,26.1,18.4,8.8,-6.0,65,34,13,30.27,29.95,22,2,22,0.00
2013-2-27,47.3,35.8,22.8,12.4,7.9,2.3,60,33,18,30.47,30.27,9,1,10,0.00
2013-2-28,35.9,29.9,26.7,8.9,6.1,2.9,42,36,28,30.53,30.43,5,0,8,0.00
2013-4-10,50.4,45.1,38.2,26.8,22.5,21.0,53,41,35,30.07,29.98,11,1,12,0.01
2013-4-15,83.8,73.6,62.4,20.5,15.9,9.2,18,12,6,29.63,29.42,24,4,27,0.00
2013-4-16,63.1,61.5,60.0,21.8,19.6,16.9,22,20,17,29.64,29.63,11,2,13,0.00
2013-4-25,79.2,69.1,55.4,31.9,26.7,15.2,36,22,11,30.08,29.73,23,3,24,0.00
2013-4-26,78.7,63.6,48.6,33.1,23.0,3.3,47,26,6,30.11,29.93,11,2,14,0.00
2013-4-27,80.3,64.3,47.3,31.7,18.1,-3.4,48,22,4,30.16,29.94,13,1,14,0.00
2013-4-28,83.2,65.7,44.7,18.3,9.6,-6.7,28,13,3,30.03,29.76,11,1,11,0.00
2013-4-29,88.0,69.5,48.5,23.7,16.4,10.9,29,15,6,29.85,29.59,16,1,16,0.00
2013-4-30,88.5,73.5,56.6,24.4,17.1,6.5,25,13,5,29.70,29.52,18,2,22,0.00
2013-5-1,86.0,71.9,52.4,30.5,15.5,-2.0,42,13,5,30.03,29.63,24,3,24,0.00
2013-5-2,64.1,51.9,40.0,30.2,19.5,12.7,52,30,15,30.44,30.02,19,4,21,0.00
2013-5-3,69.5,53.9,36.4,20.1,15.8,9.9,43,24,11,30.45,30.01,13,2,13,0.00
2013-5-4,78.8,62.5,41.9,19.1,13.5,5.2,39,17,7,30.03,29.78,25,3,27,0.00
2013-5-5,75.3,63.3,52.1,33.1,21.2,11.0,27,20,14,30.04,29.88,31,8,32,0.00
2013-5-6,72.5,64.4,56.0,42.7,28.1,17.4,54,26,18,29.93,29.84,16,3,17,0.00
2013-5-7,79.0,64.2,49.1,36.5,32.2,23.3,56,33,13,29.96,29.74,18,1,18,0.00
2013-5-8,74.3,68.2,60.0,33.9,23.4,16.8,37,19,12,29.93,29.81,15,3,17,0.00
2013-5-9,74.8,63.1,49.9,39.1,27.1,21.1,46,27,15,30.04,29.87,13,1,13,0.00
2013-5-10,72.5,60.9,51.9,43.5,38.0,33.2,63,44,25,30.23,30.00,15,3,17,0.00
2013-5-11,74.3,60.9,47.8,44.3,38.9,28.2,83,49,20,30.29,30.21,17,2,17,0.00
2013-5-12,83.3,65.3,46.2,37.6,34.0,27.5,64,35,14,30.30,30.04,11,1,13,0.00
2013-5-13,85.3,70.6,53.0,37.4,31.2,26.6,47,26,13,30.17,29.95,10,1,11,0.00
2013-5-14,90.5,71.4,54.3,51.9,30.3,17.6,61,25,10,30.00,29.72,14,1,14,0.05
2013-5-15,90.8,73.0,63.1,47.8,41.4,27.3,57,36,11,29.84,29.63,14,1,15,0.00
2013-6-11,103.5,95.9,81.0,27.7,19.8,4.3,13,7,3,29.74,29.58,13,2,14,0.00
2013-7-17,83.8,76.4,68.3,54.9,51.8,47.9,59,43,31,30.16,30.01,16,5,16,0.01
2013-7-18,83.8,70.7,63.5,56.9,54.2,52.3,72,57,35,30.11,29.99,15,2,16,0.00
2013-8-15,84.7,78.5,72.5,57.6,55.8,54.6,56,46,37,29.98,29.93,9,2,9,0.00
2013-8-27,90.7,83.1,69.4,56.8,51.9,47.0,62,35,27,29.97,29.79,9,2,11,0.00
2013-8-28,90.7,78.0,65.7,57.1,53.3,49.1,65,44,28,29.97,29.83,14,2,14,0.00
2013-8-29,88.8,78.3,72.1,59.7,55.9,52.6,57,47,31,30.01,29.90,13,2,15,0.00
2013-8-30,94.3,81.2,69.2,62.5,55.7,45.3,74,45,21,29.98,29.80,13,1,13,0.00
2013-8-31,95.7,83.0,69.1,59.4,52.3,43.3,65,38,20,29.87,29.67,10,1,11,0.00
2013-9-1,96.5,80.2,68.3,63.9,52.8,47.7,86,41,21,29.92,29.70,26,2,26,0.10
2013-9-2,91.2,79.1,69.0,64.0,56.0,50.6,82,47,28,29.96,29.81,12,2,12,0.00
2013-9-3,93.7,78.8,67.6,64.0,56.5,48.6,78,50,23,29.95,29.80,17,1,20,0.40
2013-9-4,92.3,79.7,65.0,61.8,50.0,35.4,78,41,16,30.03,29.88,12,2,12,0.00
2013-9-5,92.3,79.0,62.6,48.0,42.7,36.0,55,30,17,30.04,29.89,10,1,10,0.00
2013-9-6,92.3,78.1,61.7,47.8,42.7,40.0,50,30,18,30.04,29.83,11,1,14,0.00
2013-9-7,93.0,77.7,64.4,63.5,51.6,45.8,63,41,25,29.95,29.77,16,1,17,0.09
2013-9-8,91.0,76.8,62.7,54.4,51.4,48.3,70,44,25,29.89,29.68,14,1,14,0.00
2013-9-9,89.5,76.8,64.2,56.1,52.7,44.7,73,45,25,29.79,29.62,13,2,13,0.00
2013-9-10,75.3,67.8,63.1,62.7,58.9,54.0,93,75,52,29.95,29.76,12,1,12,0.74
2013-9-11,82.8,70.8,63.2,63.8,59.5,48.2,94,71,34,30.02,29.90,18,2,18,0.00
2013-9-12,75.0,67.7,63.1,67.1,60.6,56.3,93,78,66,29.99,29.88,11,2,13,0.37
2013-9-13,75.5,66.9,62.7,63.0,60.1,56.1,93,80,54,29.98,29.86,12,1,13,0.21
2013-9-14,76.8,66.5,59.6,61.7,58.7,56.3,94,77,53,29.95,29.83,11,1,15,0.91
2013-9-15,80.3,68.0,58.1,60.6,56.1,50.6,93,69,38,30.02,29.91,12,1,12,0.21
2013-9-16,81.3,69.6,57.8,57.7,55.1,51.1,89,63,38,30.09,29.94,10,1,10,0.00
2013-9-17,83.6,72.0,60.1,60.1,56.7,52.0,88,61,36,30.00,29.78,13,1,13,0.00
2013-9-18,85.0,74.4,66.7,61.2,57.8,51.9,76,58,35,29.83,29.68,11,1,11,0.00
2013-9-19,86.8,73.2,61.7,61.7,55.5,45.5,91,58,25,29.83,29.73,8,1,8,0.07
2013-9-20,83.5,72.5,63.2,54.8,52.5,43.4,65,51,36,29.94,29.82,26,4,26,0.00
2013-9-21,82.0,70.0,58.0,58.1,54.0,50.6,87,59,36,29.97,29.77,11,2,11,0.00
2013-9-22,82.3,68.8,60.2,57.5,52.6,39.6,89,59,30,29.82,29.48,25,3,25,0.43
2013-9-23,76.5,63.1,47.8,42.4,37.4,32.0,75,41,21,30.04,29.69,14,1,16,0.00
2013-9-24,78.2,63.8,49.1,46.9,42.8,38.6,77,49,25,30.14,29.93,9,1,10,0.00
2013-9-25,85.5,69.0,50.6,48.5,43.5,36.5,81,44,22,29.93,29.61,16,2,18,0.00
2013-9-26,84.5,70.8,55.7,45.5,41.3,34.2,67,38,18,29.73,29.59,13,2,21,0.00
2013-9-27,74.8,63.7,50.1,51.9,42.8,33.6,54,46,40,29.99,29.64,15,2,16,0.00
2013-9-28,72.0,56.0,40.2,34.5,29.1,19.4,72,40,14,30.25,29.99,3,0,8,0.00
2013-9-29,78.5,60.0,41.9,36.8,31.2,24.3,70,39,14,30.25,30.02,9,0,9,0.00
2013-9-30,84.5,64.8,46.7,38.4,34.4,27.4,64,36,14,30.04,29.82,7,0,9,0.00
2013-10-1,86.6,66.5,47.6,39.6,32.4,21.3,64,33,10,29.98,29.84,7,1,7,0.00
2013-10-2,82.3,65.5,46.9,37.8,32.9,23.7,62,33,12,29.99,29.82,6,1,8,0.00
2013-10-3,80.0,65.5,48.5,40.0,35.0,27.0,67,36,15,29.88,29.66,14,1,14,0.00
2013-10-4,68.5,59.0,50.5,35.7,23.9,12.2,47,28,14,30.12,29.75,14,2,16,0.00
2013-10-5,65.8,53.2,41.3,26.0,21.7,16.4,51,31,15,30.31,30.12,12,1,12,0.00
2013-10-6,72.2,55.1,39.0,32.9,25.4,19.8,57,34,15,30.39,30.23,8,1,8,0.00
2013-10-7,76.8,58.6,40.6,32.2,28.2,21.5,64,35,14,30.32,30.07,8,1,9,0.00
2013-10-8,80.0,63.5,47.3,35.6,32.4,29.4,61,34,17,30.07,29.78,10,1,11,0.00
2013-10-9,77.3,63.6,46.9,40.5,35.0,28.0,65,37,17,29.88,29.74,15,2,15,0.00
2013-10-10,72.2,58.5,45.5,48.6,37.6,29.3,75,47,27,29.97,29.63,23,3,30,0.10
2013-10-11,65.8,51.5,36.7,35.2,33.0,30.9,83,52,29,30.12,29.96,9,1,10,0.00
2013-10-12,71.7,56.3,40.6,39.8,35.8,33.1,78,50,25,30.22,30.04,15,2,16,0.00
2013-10-13,79.8,64.1,48.0,45.4,40.6,36.0,70,45,21,30.12,29.84,19,2,20,0.00
2013-10-14,71.3,60.7,49.2,45.6,32.2,19.9,73,38,16,30.02,29.87,14,2,17,0.00
2013-10-15,68.0,53.6,40.0,34.1,29.9,24.3,61,42,28,30.11,29.93,26,5,30,0.00
2013-10-16,64.5,53.4,46.1,37.4,30.2,16.4,64,43,20,30.16,30.03,22,3,25,0.00
2013-10-17,66.6,50.7,34.4,28.6,23.6,18.7,66,37,18,30.23,29.99,9,0,10,0.00
2013-10-18,67.0,52.1,36.2,28.5,21.7,14.9,66,35,14,30.21,30.01,14,1,17,0.00
2013-10-19,66.2,49.8,33.9,31.2,26.2,20.4,80,45,18,30.28,30.08,9,1,10,0.00
2013-10-20,72.8,54.6,36.1,28.6,22.5,14.2,62,32,12,30.13,29.89,10,0,13,0.00
2013-10-21,61.4,51.6,43.5,34.0,30.9,20.1,61,46,26,30.15,30.00,18,3,18,0.00
2013-11-4,68.3,61.9,53.9,45.0,38.6,34.3,65,43,30,29.94,29.74,14,3,14,0.00
2013-11-5,56.9,47.5,36.1,45.6,34.1,18.2,91,62,40,30.34,29.77,12,1,13,0.16
2013-11-6,51.9,36.7,28.5,20.7,17.8,15.2,69,48,25,30.57,30.34,7,0,8,0.00
2013-11-13,57.2,51.1,40.8,40.1,38.3,33.5,76,62,50,30.59,30.24,8,1,9,0.00
2013-11-14,62.2,48.5,37.8,41.8,36.7,31.8,90,66,37,30.24,30.01,7,0,7,0.00
2013-11-15,63.1,47.8,34.7,46.7,35.9,27.6,90,65,37,30.01,29.75,18,2,20,0.20
2013-11-16,61.9,52.6,44.1,45.8,38.9,30.3,91,62,37,29.89,29.66,15,1,15,0.01
2013-11-17,63.2,51.0,38.0,36.1,33.2,31.0,79,52,34,30.21,29.88,19,1,19,0.00
2013-11-18,59.4,45.4,36.4,34.1,32.3,30.0,80,62,35,30.33,30.19,5,0,7,0.00
2013-11-19,64.0,47.8,32.9,38.1,34.1,29.3,87,62,34,30.25,29.95,7,0,7,0.00
2013-11-20,50.9,46.1,41.1,44.0,38.6,31.3,93,76,55,30.03,29.93,8,0,8,0.21
2013-11-21,57.9,48.8,42.6,46.6,43.9,37.8,94,84,61,30.16,30.02,15,1,17,0.24
2013-11-22,42.5,35.9,31.3,37.7,27.2,23.2,83,70,65,30.54,30.14,32,10,32,0.03
2013-11-23,38.6,34.5,28.0,32.2,25.2,19.5,88,69,56,30.61,30.47,31,10,32,0.00
2013-11-24,35.9,30.6,24.4,26.7,22.2,16.0,85,71,60,30.57,30.34,25,4,25,0.00
2013-11-25,49.7,36.7,29.4,32.2,28.8,25.6,89,74,47,30.52,30.30,10,1,10,0.01
2013-11-26,50.0,37.7,26.9,31.3,28.4,23.8,89,71,47,30.63,30.51,6,0,7,0.01
2013-11-27,47.8,37.8,27.0,30.2,27.8,23.5,88,69,47,30.57,30.37,7,0,7,0.00
2013-11-28,51.4,37.9,27.4,28.7,26.6,24.3,89,66,38,30.47,30.34,8,0,8,0.00
2013-11-29,55.8,40.5,27.9,32.6,29.0,24.6,88,67,38,30.54,30.39,5,0,5,0.00
2013-11-30,58.1,43.2,31.4,33.9,31.4,27.5,86,66,39,30.48,30.31,5,0,6,0.00
2013-12-1,52.7,41.4,34.8,33.9,31.2,28.0,83,68,47,30.44,30.32,11,1,12,0.00
2013-12-2,55.2,41.9,32.7,31.3,28.7,26.3,77,61,39,30.36,29.99,8,0,10,0.00
2013-12-3,66.8,45.1,32.7,31.2,25.7,15.4,78,52,14,30.00,29.70,12,1,13,0.00
2013-12-10,36.4,28.6,17.4,12.2,8.1,3.6,65,43,26,30.78,30.58,5,1,5,0.00
2013-12-11,45.7,30.0,17.5,19.8,14.3,9.5,73,54,27,30.78,30.61,6,0,6,0.00
2013-12-12,44.6,32.8,23.7,22.0,18.3,13.0,71,56,39,30.76,30.35,7,0,7,0.00
2013-12-13,51.6,38.0,32.5,34.3,28.3,20.8,87,69,48,30.35,30.12,10,1,11,0.00